createdAt,value
2019-03-29T00:00:01.156Z,60.77
2019-03-29T00:00:40.176Z,61.39
2019-03-29T00:01:11.780Z,61.91
2019-03-29T00:01:43.039Z,62.75
2019-03-29T00:02:14.295Z,63.62
2019-03-29T00:02:45.535Z,64.52
2019-03-29T00:03:16.871Z,64.71
2019-03-29T00:03:48.135Z,64.67
2019-03-29T00:04:19.375Z,64.26
2019-03-29T00:04:50.614Z,63.73
2019-03-29T00:05:21.900Z,63.19
2019-03-29T00:05:53.122Z,62.41
2019-03-29T00:06:24.505Z,61.73
2019-03-29T00:06:55.847Z,61.12
2019-03-29T00:07:39.020Z,60.40
2019-03-29T00:08:00.193Z,59.86
2019-03-29T00:08:31.423Z,59.17
2019-03-29T00:09:05.763Z,58.32
2019-03-29T00:09:37.048Z,57.78
2019-03-29T00:10:08.343Z,57.52
2019-03-29T00:10:39.511Z,57.60
2019-03-29T00:11:10.745Z,57.88
2019-03-29T00:11:41.924Z,58.30
2019-03-29T00:12:13.137Z,58.85
2019-03-29T00:12:44.315Z,59.31
2019-03-29T00:13:15.547Z,59.82
2019-03-29T00:13:46.717Z,60.42
2019-03-29T00:14:17.940Z,60.94
2019-03-29T00:14:49.102Z,61.69
2019-03-29T00:15:20.337Z,62.07
2019-03-29T00:15:51.924Z,62.79
2019-03-29T00:16:23.144Z,63.60
2019-03-29T00:16:54.494Z,64.35
2019-03-29T00:17:25.819Z,64.69
2019-03-29T00:17:56.995Z,64.57
2019-03-29T00:18:28.218Z,64.00
2019-03-29T00:18:59.402Z,63.42
2019-03-29T00:19:30.604Z,62.60
2019-03-29T00:20:06.195Z,61.88
2019-03-29T00:20:37.668Z,61.22
2019-03-29T00:21:08.884Z,60.59
2019-03-29T00:21:40.176Z,60.02
2019-03-29T00:22:11.776Z,59.39
2019-03-29T00:22:42.979Z,58.66
2019-03-29T00:23:14.194Z,57.87
2019-03-29T00:23:45.388Z,57.52
2019-03-29T00:24:16.584Z,57.51
2019-03-29T00:24:47.775Z,57.75
2019-03-29T00:25:18.976Z,58.09
2019-03-29T00:25:50.222Z,58.58
2019-03-29T00:26:21.520Z,59.01
2019-03-29T00:26:53.214Z,59.50
2019-03-29T00:27:24.901Z,60.06
2019-03-29T00:27:56.088Z,60.50
2019-03-29T00:28:27.332Z,61.16
2019-03-29T00:28:58.528Z,61.75
2019-03-29T00:29:30.723Z,62.30
2019-03-29T00:30:02.109Z,62.89
2019-03-29T00:30:33.315Z,63.64
2019-03-29T00:31:04.527Z,64.34
2019-03-29T00:31:35.740Z,64.55
2019-03-29T00:32:06.945Z,64.32
2019-03-29T00:32:39.145Z,63.88
2019-03-29T00:33:10.369Z,63.15
2019-03-29T00:33:41.833Z,62.41
2019-03-29T00:34:13.048Z,61.73
2019-03-29T00:34:44.287Z,61.00
2019-03-29T00:35:15.561Z,60.41
2019-03-29T00:35:46.825Z,59.65
2019-03-29T00:36:18.242Z,59.15
2019-03-29T00:36:49.405Z,58.38
2019-03-29T00:37:20.633Z,57.72
2019-03-29T00:37:53.844Z,57.49
2019-03-29T00:38:25.074Z,57.58
2019-03-29T00:38:56.240Z,57.90
2019-03-29T00:39:27.485Z,58.25
2019-03-29T00:39:58.659Z,58.69
2019-03-29T00:40:29.893Z,59.20
2019-03-29T00:41:01.070Z,59.73
2019-03-29T00:41:32.288Z,60.18
2019-03-29T00:42:03.468Z,60.75
2019-03-29T00:42:34.692Z,61.20
2019-03-29T00:43:05.885Z,61.70
2019-03-29T00:43:37.080Z,62.17
2019-03-29T00:44:08.332Z,62.81
2019-03-29T00:44:39.571Z,63.49
2019-03-29T00:45:10.834Z,64.26
2019-03-29T00:45:42.066Z,64.48
2019-03-29T00:46:13.316Z,64.28
2019-03-29T00:46:44.546Z,63.78
2019-03-29T00:47:15.784Z,63.15
2019-03-29T00:47:47.030Z,62.47
2019-03-29T00:48:18.206Z,61.70
2019-03-29T00:48:49.435Z,61.02
2019-03-29T00:49:20.608Z,60.37
2019-03-29T00:49:51.805Z,59.65
2019-03-29T00:50:22.987Z,58.95
2019-03-29T00:50:54.553Z,58.09
2019-03-29T00:51:25.757Z,57.50
2019-03-29T00:51:56.990Z,57.08
2019-03-29T00:52:28.155Z,57.11
2019-03-29T00:52:59.378Z,57.50
2019-03-29T00:53:30.547Z,57.87
2019-03-29T00:54:02.060Z,58.27
2019-03-29T00:54:33.502Z,58.79
2019-03-29T00:55:05.203Z,59.32
2019-03-29T00:55:36.480Z,60.05
2019-03-29T00:56:07.722Z,60.54
2019-03-29T00:56:39.114Z,61.15
2019-03-29T00:57:10.499Z,61.68
2019-03-29T00:57:41.721Z,62.19
2019-03-29T00:58:12.887Z,62.66
2019-03-29T00:58:44.146Z,63.46
2019-03-29T00:59:15.321Z,64.25
2019-03-29T00:59:46.547Z,64.48
2019-03-29T01:00:17.740Z,64.31
2019-03-29T01:00:48.965Z,63.79
2019-03-29T01:01:20.131Z,63.03
2019-03-29T01:01:51.368Z,61.73
2019-03-29T01:02:22.550Z,61.10
2019-03-29T01:02:54.883Z,60.30
2019-03-29T01:03:26.063Z,59.65
2019-03-29T01:03:58.296Z,59.02
2019-03-29T01:04:29.464Z,57.84
2019-03-29T01:05:00.761Z,57.04
2019-03-29T01:05:32.002Z,56.78
2019-03-29T01:06:03.232Z,56.75
2019-03-29T01:06:34.394Z,56.88
2019-03-29T01:07:05.623Z,57.14
2019-03-29T01:07:36.790Z,57.36
2019-03-29T01:08:10.490Z,57.72
2019-03-29T01:08:41.660Z,57.81
2019-03-29T01:09:12.900Z,58.22
2019-03-29T01:09:44.065Z,58.84
2019-03-29T01:10:15.287Z,59.40
2019-03-29T01:10:46.458Z,60.00
2019-03-29T01:11:17.656Z,60.56
2019-03-29T01:11:48.847Z,61.10
2019-03-29T01:12:20.050Z,61.50
2019-03-29T01:12:51.213Z,61.95
2019-03-29T01:13:22.446Z,62.47
2019-03-29T01:13:53.632Z,63.13
2019-03-29T01:14:25.069Z,63.81
2019-03-29T01:14:56.204Z,64.08
2019-03-29T01:15:27.474Z,63.89
2019-03-29T01:15:58.647Z,63.34
2019-03-29T01:16:29.859Z,62.51
2019-03-29T01:17:01.031Z,61.61
2019-03-29T01:17:32.250Z,60.77
2019-03-29T01:18:03.478Z,60.07
2019-03-29T01:18:34.711Z,59.35
2019-03-29T01:19:05.971Z,58.15
2019-03-29T01:19:37.132Z,57.23
2019-03-29T01:20:08.936Z,56.80
2019-03-29T01:20:40.083Z,56.69
2019-03-29T01:21:11.295Z,56.71
2019-03-29T01:21:42.447Z,57.05
2019-03-29T01:22:13.639Z,57.44
2019-03-29T01:22:44.793Z,57.86
2019-03-29T01:23:15.997Z,58.24
2019-03-29T01:23:47.153Z,58.83
2019-03-29T01:24:18.361Z,59.24
2019-03-29T01:24:49.528Z,59.61
2019-03-29T01:25:20.723Z,60.18
2019-03-29T01:25:51.881Z,60.77
2019-03-29T01:26:23.083Z,61.34
2019-03-29T01:26:54.247Z,61.93
2019-03-29T01:27:25.442Z,62.41
2019-03-29T01:27:56.585Z,63.01
2019-03-29T01:28:28.012Z,63.92
2019-03-29T01:28:59.213Z,64.32
2019-03-29T01:29:31.065Z,64.33
2019-03-29T01:30:06.196Z,63.78
2019-03-29T01:30:37.396Z,63.18
2019-03-29T01:31:09.051Z,62.29
2019-03-29T01:31:40.940Z,61.45
2019-03-29T01:32:12.229Z,60.64
2019-03-29T01:32:43.390Z,59.98
2019-03-29T01:33:14.568Z,59.09
2019-03-29T01:33:45.725Z,58.12
2019-03-29T01:34:17.138Z,57.37
2019-03-29T01:34:48.572Z,56.99
2019-03-29T01:35:19.775Z,56.94
2019-03-29T01:35:50.953Z,57.12
2019-03-29T01:36:22.116Z,57.38
2019-03-29T01:36:53.892Z,57.83
2019-03-29T01:37:25.288Z,58.23
2019-03-29T01:37:57.470Z,58.73
2019-03-29T01:38:28.655Z,59.32
2019-03-29T01:38:59.837Z,59.83
2019-03-29T01:39:31.019Z,60.42
2019-03-29T01:40:03.399Z,60.95
2019-03-29T01:40:35.157Z,61.48
2019-03-29T01:41:06.553Z,61.84
2019-03-29T01:41:37.713Z,62.28
2019-03-29T01:42:08.906Z,62.94
2019-03-29T01:42:40.075Z,63.71
2019-03-29T01:43:11.240Z,64.13
2019-03-29T01:43:43.410Z,64.02
2019-03-29T01:44:14.597Z,63.54
2019-03-29T01:44:45.773Z,62.84
2019-03-29T01:45:16.953Z,61.88
2019-03-29T01:45:48.389Z,61.00
2019-03-29T01:46:20.628Z,60.08
2019-03-29T01:46:51.808Z,59.22
2019-03-29T01:47:23.002Z,58.14
2019-03-29T01:47:54.309Z,57.15
2019-03-29T01:48:25.508Z,56.62
2019-03-29T01:48:56.683Z,56.40
2019-03-29T01:49:29.885Z,56.59
2019-03-29T01:50:01.068Z,56.80
2019-03-29T01:50:32.240Z,57.29
2019-03-29T01:51:03.377Z,57.77
2019-03-29T01:51:34.538Z,58.29
2019-03-29T01:52:05.706Z,58.79
2019-03-29T01:52:36.888Z,59.39
2019-03-29T01:53:08.041Z,59.90
2019-03-29T01:53:39.234Z,60.40
2019-03-29T01:54:10.433Z,60.90
2019-03-29T01:54:41.636Z,61.47
2019-03-29T01:55:12.780Z,61.99
2019-03-29T01:55:44.014Z,62.50
2019-03-29T01:56:15.238Z,63.14
2019-03-29T01:56:46.473Z,63.97
2019-03-29T01:57:17.702Z,64.22
2019-03-29T01:57:48.882Z,64.04
2019-03-29T01:58:20.015Z,63.50
2019-03-29T01:58:53.118Z,62.68
2019-03-29T01:59:24.462Z,61.87
2019-03-29T01:59:55.631Z,61.03
2019-03-29T02:00:32.825Z,60.15
2019-03-29T02:01:04.026Z,59.34
2019-03-29T02:01:35.221Z,58.10
2019-03-29T02:02:58.104Z,56.56
2019-03-29T02:03:29.333Z,56.66
2019-03-29T02:04:00.555Z,56.89
2019-03-29T02:04:31.776Z,57.19
2019-03-29T02:05:06.689Z,57.62
2019-03-29T02:05:37.907Z,58.00
2019-03-29T02:06:09.125Z,58.62
2019-03-29T02:06:40.355Z,59.12
2019-03-29T02:07:12.061Z,59.56
2019-03-29T02:07:43.274Z,60.04
2019-03-29T02:08:14.437Z,60.49
2019-03-29T02:08:45.673Z,60.97
2019-03-29T02:09:16.893Z,61.44
2019-03-29T02:09:48.105Z,61.82
2019-03-29T02:10:19.343Z,62.31
2019-03-29T02:10:50.567Z,62.80
2019-03-29T02:11:21.796Z,63.51
2019-03-29T02:11:53.043Z,64.15
2019-03-29T02:12:24.525Z,64.24
2019-03-29T02:12:55.986Z,63.98
2019-03-29T02:13:27.127Z,63.33
2019-03-29T02:13:58.339Z,62.57
2019-03-29T02:14:29.492Z,61.74
2019-03-29T02:15:00.696Z,60.88
2019-03-29T02:15:31.871Z,60.01
2019-03-29T02:16:03.165Z,59.25
2019-03-29T02:16:35.192Z,58.23
2019-03-29T02:17:06.418Z,57.30
2019-03-29T02:17:37.562Z,56.83
2019-03-29T02:18:08.766Z,56.69
2019-03-29T02:18:39.985Z,56.80
2019-03-29T02:19:11.219Z,57.06
2019-03-29T02:19:42.366Z,57.43
2019-03-29T02:20:13.552Z,57.83
2019-03-29T02:20:44.736Z,58.30
2019-03-29T02:21:16.905Z,58.77
2019-03-29T02:21:48.236Z,59.27
2019-03-29T02:22:19.440Z,59.74
2019-03-29T02:22:50.610Z,60.27
2019-03-29T02:23:21.791Z,60.77
2019-03-29T02:23:52.962Z,61.32
2019-03-29T02:24:24.381Z,61.81
2019-03-29T02:24:55.553Z,62.25
2019-03-29T02:25:27.337Z,62.75
2019-03-29T02:25:58.607Z,63.42
2019-03-29T02:26:29.773Z,64.07
2019-03-29T02:27:01.035Z,64.31
2019-03-29T02:27:32.433Z,64.03
2019-03-29T02:28:03.623Z,63.49
2019-03-29T02:28:34.782Z,62.66
2019-03-29T02:29:05.990Z,61.84
2019-03-29T02:29:37.207Z,61.00
2019-03-29T02:30:08.452Z,60.17
2019-03-29T02:30:39.595Z,59.45
2019-03-29T02:31:10.855Z,58.44
2019-03-29T02:31:42.734Z,57.46
2019-03-29T02:32:14.097Z,56.98
2019-03-29T02:32:45.255Z,56.88
2019-03-29T02:33:16.474Z,57.07
2019-03-29T02:33:48.460Z,57.38
2019-03-29T02:34:19.931Z,57.74
2019-03-29T02:34:51.093Z,58.31
2019-03-29T02:35:22.289Z,58.87
2019-03-29T02:35:53.455Z,59.43
2019-03-29T02:36:24.727Z,59.91
2019-03-29T02:36:55.871Z,60.34
2019-03-29T02:37:28.627Z,60.90
2019-03-29T02:38:00.410Z,61.46
2019-03-29T02:38:31.609Z,62.08
2019-03-29T02:39:03.758Z,62.52
2019-03-29T02:39:35.367Z,63.18
2019-03-29T02:40:06.513Z,63.98
2019-03-29T02:40:37.753Z,64.29
2019-03-29T02:41:09.001Z,64.17
2019-03-29T02:41:40.224Z,63.64
2019-03-29T02:42:11.378Z,63.03
2019-03-29T02:42:42.921Z,62.27
2019-03-29T02:43:14.561Z,61.52
2019-03-29T02:43:45.763Z,60.80
2019-03-29T02:44:16.914Z,60.02
2019-03-29T02:44:48.136Z,59.33
2019-03-29T02:45:19.299Z,58.34
2019-03-29T02:45:50.489Z,57.39
2019-03-29T02:46:21.635Z,56.99
2019-03-29T02:46:53.801Z,56.93
2019-03-29T02:47:25.383Z,57.10
2019-03-29T02:47:56.586Z,57.40
2019-03-29T02:48:27.891Z,57.86
2019-03-29T02:48:59.072Z,58.41
2019-03-29T02:49:30.352Z,58.90
2019-03-29T02:50:01.627Z,59.42
2019-03-29T02:50:32.806Z,59.96
2019-03-29T02:51:04.784Z,60.52
2019-03-29T02:51:36.450Z,60.98
2019-03-29T02:52:07.610Z,61.60
2019-03-29T02:52:38.771Z,62.12
2019-03-29T02:53:09.927Z,62.58
2019-03-29T02:53:41.104Z,63.28
2019-03-29T02:54:13.381Z,64.06
2019-03-29T02:54:44.540Z,64.37
2019-03-29T02:55:15.713Z,64.21
2019-03-29T02:55:46.894Z,63.67
2019-03-29T02:56:18.103Z,62.98
2019-03-29T02:56:49.399Z,62.23
2019-03-29T02:57:20.632Z,61.48
2019-03-29T02:57:51.860Z,60.60
2019-03-29T02:58:23.094Z,59.82
2019-03-29T02:58:54.353Z,59.12
2019-03-29T02:59:25.523Z,58.14
2019-03-29T02:59:56.743Z,57.38
2019-03-29T03:00:27.885Z,57.04
2019-03-29T03:00:59.110Z,57.00
2019-03-29T03:01:30.256Z,57.14
2019-03-29T03:02:01.472Z,57.52
2019-03-29T03:02:33.628Z,57.94
2019-03-29T03:03:04.903Z,58.47
2019-03-29T03:03:36.113Z,58.99
2019-03-29T03:04:07.285Z,59.50
2019-03-29T03:04:38.507Z,60.00
2019-03-29T03:05:09.737Z,60.55
2019-03-29T03:05:40.976Z,61.12
2019-03-29T03:06:12.196Z,61.63
2019-03-29T03:06:43.545Z,62.14
2019-03-29T03:07:14.762Z,62.68
2019-03-29T03:07:45.992Z,63.34
2019-03-29T03:08:17.216Z,64.05
2019-03-29T03:08:48.508Z,64.33
2019-03-29T03:09:19.641Z,64.08
2019-03-29T03:09:50.838Z,63.61
2019-03-29T03:10:21.978Z,62.99
2019-03-29T03:10:53.216Z,62.09
2019-03-29T03:11:24.486Z,61.31
2019-03-29T03:11:55.698Z,60.45
2019-03-29T03:12:26.843Z,59.68
2019-03-29T03:12:58.142Z,58.85
2019-03-29T03:13:29.331Z,57.91
2019-03-29T03:14:00.525Z,57.17
2019-03-29T03:14:31.696Z,56.79
2019-03-29T03:15:07.070Z,56.73
2019-03-29T03:15:38.234Z,56.91
2019-03-29T03:16:09.427Z,57.22
2019-03-29T03:16:40.573Z,57.68
2019-03-29T03:17:11.797Z,58.12
2019-03-29T03:17:43.011Z,58.62
2019-03-29T03:18:14.207Z,59.17
2019-03-29T03:18:45.378Z,59.69
2019-03-29T03:19:16.566Z,60.24
2019-03-29T03:19:47.720Z,60.75
2019-03-29T03:20:18.902Z,61.26
2019-03-29T03:20:50.078Z,61.73
2019-03-29T03:21:21.267Z,62.19
2019-03-29T03:21:52.440Z,62.62
2019-03-29T03:22:23.612Z,63.29
2019-03-29T03:22:54.893Z,63.93
2019-03-29T03:23:26.060Z,64.21
2019-03-29T03:23:57.323Z,63.96
2019-03-29T03:24:28.493Z,63.52
2019-03-29T03:24:59.688Z,62.76
2019-03-29T03:25:30.876Z,61.97
2019-03-29T03:26:02.061Z,61.12
2019-03-29T03:26:33.278Z,60.33
2019-03-29T03:27:04.457Z,59.52
2019-03-29T03:27:35.627Z,58.61
2019-03-29T03:28:06.822Z,57.75
2019-03-29T03:28:37.982Z,57.29
2019-03-29T03:29:09.141Z,57.20
2019-03-29T03:29:40.345Z,57.33
2019-03-29T03:30:11.618Z,57.59
2019-03-29T03:30:42.787Z,58.05
2019-03-29T03:31:13.969Z,58.54
2019-03-29T03:31:45.167Z,59.11
2019-03-29T03:32:16.661Z,59.69
2019-03-29T03:32:47.951Z,60.23
2019-03-29T03:33:19.228Z,60.79
2019-03-29T03:33:50.618Z,61.39
2019-03-29T03:34:21.941Z,61.85
2019-03-29T03:34:53.139Z,62.40
2019-03-29T03:35:24.356Z,63.11
2019-03-29T03:35:55.552Z,63.83
2019-03-29T03:36:26.823Z,64.19
2019-03-29T03:36:58.034Z,64.09
2019-03-29T03:37:29.212Z,63.61
2019-03-29T03:38:00.387Z,62.91
2019-03-29T03:38:31.570Z,62.14
2019-03-29T03:39:06.187Z,61.33
2019-03-29T03:39:37.361Z,60.52
2019-03-29T03:40:08.635Z,59.75
2019-03-29T03:40:39.812Z,59.06
2019-03-29T03:41:10.998Z,58.04
2019-03-29T03:41:42.174Z,57.28
2019-03-29T03:42:13.361Z,56.85
2019-03-29T03:42:44.552Z,56.81
2019-03-29T03:43:15.820Z,56.95
2019-03-29T03:43:46.989Z,57.34
2019-03-29T03:44:18.207Z,57.77
2019-03-29T03:44:49.362Z,58.27
2019-03-29T03:45:20.558Z,58.83
2019-03-29T03:45:51.699Z,59.33
2019-03-29T03:46:22.907Z,59.82
2019-03-29T03:46:54.062Z,60.39
2019-03-29T03:47:25.277Z,60.88
2019-03-29T03:47:56.429Z,61.39
2019-03-29T03:48:27.638Z,61.87
2019-03-29T03:48:58.803Z,62.31
2019-03-29T03:49:30.088Z,62.98
2019-03-29T03:50:01.804Z,63.80
2019-03-29T03:50:41.135Z,64.14
2019-03-29T03:51:12.321Z,64.24
2019-03-29T03:51:43.544Z,63.63
2019-03-29T03:52:14.769Z,62.92
2019-03-29T03:52:45.990Z,62.18
2019-03-29T03:53:17.235Z,61.34
2019-03-29T03:53:48.449Z,60.54
2019-03-29T03:54:19.688Z,59.79
2019-03-29T03:54:50.847Z,59.11
2019-03-29T03:55:22.071Z,58.20
2019-03-29T03:55:53.400Z,57.49
2019-03-29T03:56:24.916Z,57.10
2019-03-29T03:56:56.129Z,57.08
2019-03-29T03:57:27.463Z,57.29
2019-03-29T03:57:58.777Z,57.66
2019-03-29T03:58:30.020Z,58.07
2019-03-29T03:59:01.264Z,58.55
2019-03-29T03:59:32.575Z,59.17
2019-03-29T04:00:06.611Z,59.65
2019-03-29T04:00:52.518Z,60.20
2019-03-29T04:01:24.671Z,60.72
2019-03-29T04:01:55.876Z,61.58
2019-03-29T04:02:27.037Z,62.23
2019-03-29T04:02:58.257Z,62.79
2019-03-29T04:03:29.503Z,63.56
2019-03-29T04:04:00.733Z,64.31
2019-03-29T04:04:37.202Z,64.61
2019-03-29T04:05:06.081Z,64.39
2019-03-29T04:05:37.308Z,63.86
2019-03-29T04:06:08.539Z,63.29
2019-03-29T04:06:39.911Z,62.52
2019-03-29T04:07:11.124Z,61.77
2019-03-29T04:07:42.350Z,61.01
2019-03-29T04:08:13.590Z,60.25
2019-03-29T04:08:44.844Z,59.56
2019-03-29T04:09:16.059Z,58.75
2019-03-29T04:09:50.203Z,57.90
2019-03-29T04:10:20.327Z,57.43
2019-03-29T04:10:52.529Z,57.40
2019-03-29T04:11:23.730Z,57.60
2019-03-29T04:11:55.095Z,57.99
2019-03-29T04:12:26.256Z,58.45
2019-03-29T04:12:57.738Z,58.97
2019-03-29T04:13:28.893Z,59.53
2019-03-29T04:14:00.116Z,59.99
2019-03-29T04:14:31.356Z,60.62
2019-03-29T04:15:03.453Z,61.27
2019-03-29T04:15:34.702Z,61.85
2019-03-29T04:16:05.898Z,62.35
2019-03-29T04:16:37.041Z,63.15
2019-03-29T04:17:08.242Z,63.97
2019-03-29T04:17:39.425Z,64.39
2019-03-29T04:18:15.228Z,64.35
2019-03-29T04:18:43.734Z,64.01
2019-03-29T04:19:14.933Z,63.35
2019-03-29T04:19:46.119Z,62.58
2019-03-29T04:20:18.341Z,61.88
2019-03-29T04:20:49.527Z,61.13
2019-03-29T04:21:20.694Z,60.49
2019-03-29T04:21:51.866Z,59.77
2019-03-29T04:22:23.051Z,59.18
2019-03-29T04:22:54.341Z,58.35
2019-03-29T04:23:25.519Z,57.60
2019-03-29T04:23:56.688Z,57.31
2019-03-29T04:24:27.876Z,57.33
2019-03-29T04:24:59.048Z,57.56
2019-03-29T04:25:30.242Z,57.98
2019-03-29T04:26:01.425Z,58.50
2019-03-29T04:26:32.606Z,59.00
2019-03-29T04:27:06.385Z,59.53
2019-03-29T04:27:37.588Z,60.18
2019-03-29T04:28:08.859Z,60.76
2019-03-29T04:28:40.115Z,61.38
2019-03-29T04:29:11.293Z,61.89
2019-03-29T04:29:42.469Z,62.49
2019-03-29T04:30:13.641Z,63.11
2019-03-29T04:30:44.809Z,63.91
2019-03-29T04:31:16.031Z,64.26
2019-03-29T04:31:47.207Z,64.06
2019-03-29T04:32:18.379Z,63.60
2019-03-29T04:32:49.561Z,62.95
2019-03-29T04:33:21.741Z,62.25
2019-03-29T04:33:52.919Z,61.47
2019-03-29T04:34:24.346Z,60.81
2019-03-29T04:34:55.524Z,60.06
2019-03-29T04:35:26.684Z,59.47
2019-03-29T04:35:58.067Z,58.60
2019-03-29T04:36:29.521Z,57.88
2019-03-29T04:37:01.745Z,57.46
2019-03-29T04:37:32.972Z,57.48
2019-03-29T04:38:04.190Z,57.75
2019-03-29T04:38:35.406Z,58.16
2019-03-29T04:39:06.628Z,58.65
2019-03-29T04:39:37.855Z,59.23
2019-03-29T04:40:09.217Z,59.78
2019-03-29T04:40:40.415Z,60.40
2019-03-29T04:41:11.630Z,61.03
2019-03-29T04:41:42.772Z,61.62
2019-03-29T04:42:13.966Z,62.21
2019-03-29T04:42:45.109Z,62.76
2019-03-29T04:43:16.319Z,63.61
2019-03-29T04:43:47.465Z,64.26
2019-03-29T04:44:18.669Z,64.52
2019-03-29T04:44:49.828Z,64.33
2019-03-29T04:45:21.071Z,63.87
2019-03-29T04:45:52.252Z,63.22
2019-03-29T04:46:23.464Z,62.48
2019-03-29T04:46:54.600Z,61.77
2019-03-29T04:47:25.821Z,60.99
2019-03-29T04:47:56.972Z,60.23
2019-03-29T04:48:28.174Z,59.63
2019-03-29T04:48:59.351Z,58.97
2019-03-29T04:49:30.554Z,58.07
2019-03-29T04:50:03.601Z,57.48
2019-03-29T04:50:34.777Z,57.33
2019-03-29T04:51:05.947Z,57.42
2019-03-29T04:51:37.126Z,57.70
2019-03-29T04:52:08.394Z,58.18
2019-03-29T04:52:39.568Z,58.69
2019-03-29T04:53:10.805Z,59.25
2019-03-29T04:53:41.971Z,59.83
2019-03-29T04:54:13.136Z,60.42
2019-03-29T04:54:44.299Z,60.97
2019-03-29T04:55:15.466Z,61.44
2019-03-29T04:55:46.656Z,62.08
2019-03-29T04:56:17.830Z,62.66
2019-03-29T04:56:49.073Z,63.37
2019-03-29T04:57:20.214Z,64.09
2019-03-29T04:57:51.426Z,64.42
2019-03-29T04:58:22.572Z,64.29
2019-03-29T04:58:53.760Z,63.80
2019-03-29T04:59:24.918Z,63.22
2019-03-29T04:59:56.108Z,62.48
2019-03-29T05:00:27.442Z,61.69
2019-03-29T05:00:58.698Z,60.96
2019-03-29T05:01:29.931Z,60.31
2019-03-29T05:02:01.157Z,59.65
2019-03-29T05:02:32.372Z,59.12
2019-03-29T05:03:03.614Z,58.37
2019-03-29T05:03:34.844Z,57.78
2019-03-29T05:04:06.056Z,57.59
2019-03-29T05:04:37.283Z,57.67
2019-03-29T05:05:08.507Z,57.97
2019-03-29T05:05:39.747Z,58.46
2019-03-29T05:06:10.890Z,59.01
2019-03-29T05:06:42.126Z,59.48
2019-03-29T05:07:13.337Z,60.12
2019-03-29T05:07:44.541Z,60.72
2019-03-29T05:08:15.785Z,61.28
2019-03-29T05:08:46.988Z,61.92
2019-03-29T05:09:18.136Z,62.41
2019-03-29T05:09:49.387Z,63.18
2019-03-29T05:10:21.901Z,63.94
2019-03-29T05:10:55.192Z,64.42
2019-03-29T05:11:26.417Z,64.39
2019-03-29T05:11:57.818Z,63.96
2019-03-29T05:12:29.023Z,63.31
2019-03-29T05:13:00.218Z,62.72
2019-03-29T05:13:31.408Z,62.05
2019-03-29T05:14:02.586Z,61.37
2019-03-29T05:14:33.771Z,60.72
2019-03-29T05:15:05.092Z,60.14
2019-03-29T05:15:36.304Z,59.48
2019-03-29T05:16:07.516Z,58.73
2019-03-29T05:16:38.793Z,58.08
2019-03-29T05:17:10.014Z,57.80
2019-03-29T05:17:41.274Z,57.79
2019-03-29T05:18:12.528Z,58.02
2019-03-29T05:18:43.758Z,58.35
2019-03-29T05:19:15.023Z,58.85
2019-03-29T05:19:46.254Z,59.36
2019-03-29T05:20:17.486Z,59.85
2019-03-29T05:20:48.780Z,60.44
2019-03-29T05:21:19.944Z,60.99
2019-03-29T05:21:51.127Z,61.52
2019-03-29T05:22:22.380Z,62.03
2019-03-29T05:22:53.532Z,62.56
2019-03-29T05:23:24.709Z,63.24
2019-03-29T05:23:56.897Z,63.93
2019-03-29T05:24:28.048Z,64.25
2019-03-29T05:24:59.206Z,64.12
2019-03-29T05:25:30.386Z,63.70
2019-03-29T05:26:01.565Z,63.17
2019-03-29T05:26:32.728Z,62.51
2019-03-29T05:27:04.915Z,61.82
2019-03-29T05:27:36.072Z,61.10
2019-03-29T05:28:07.277Z,60.46
2019-03-29T05:28:38.419Z,59.83
2019-03-29T05:29:09.624Z,59.21
2019-03-29T05:29:40.780Z,58.40
2019-03-29T05:30:11.985Z,57.80
2019-03-29T05:30:43.158Z,57.56
2019-03-29T05:31:14.362Z,57.61
2019-03-29T05:31:45.506Z,57.83
2019-03-29T05:32:16.705Z,58.18
2019-03-29T05:32:47.866Z,58.66
2019-03-29T05:33:19.157Z,59.19
2019-03-29T05:33:50.309Z,59.74
2019-03-29T05:34:21.511Z,60.29
2019-03-29T05:34:52.663Z,60.89
2019-03-29T05:35:23.869Z,61.55
2019-03-29T05:35:55.032Z,62.14
2019-03-29T05:36:26.204Z,62.75
2019-03-29T05:36:58.594Z,63.63
2019-03-29T05:37:29.838Z,64.35
2019-03-29T05:38:01.010Z,64.55
2019-03-29T05:38:33.202Z,64.36
2019-03-29T05:39:05.079Z,63.94
2019-03-29T05:39:36.245Z,63.41
2019-03-29T05:40:07.419Z,62.65
2019-03-29T05:40:38.580Z,62.03
2019-03-29T05:41:09.770Z,61.36
2019-03-29T05:41:41.941Z,60.84
2019-03-29T05:42:13.125Z,60.18
2019-03-29T05:42:44.303Z,59.66
2019-03-29T05:43:15.476Z,59.20
2019-03-29T05:43:46.658Z,58.44
2019-03-29T05:44:17.850Z,57.85
2019-03-29T05:44:49.035Z,57.67
2019-03-29T05:45:20.220Z,57.72
2019-03-29T05:45:51.403Z,57.95
2019-03-29T05:46:22.586Z,58.43
2019-03-29T05:46:53.756Z,58.87
2019-03-29T05:47:24.967Z,59.49
2019-03-29T05:47:56.147Z,60.12
2019-03-29T05:48:27.320Z,60.75
2019-03-29T05:48:58.507Z,61.34
2019-03-29T05:49:29.691Z,61.97
2019-03-29T05:50:00.861Z,62.49
2019-03-29T05:50:32.035Z,63.25
2019-03-29T05:51:03.213Z,64.04
2019-03-29T05:51:34.389Z,64.32
2019-03-29T05:52:05.561Z,64.19
2019-03-29T05:52:36.708Z,63.74
2019-03-29T05:53:07.877Z,63.17
2019-03-29T05:53:39.050Z,62.42
2019-03-29T05:54:10.211Z,61.71
2019-03-29T05:54:41.440Z,61.05
2019-03-29T05:55:12.625Z,60.43
2019-03-29T05:55:43.795Z,59.76
2019-03-29T05:56:15.002Z,59.22
2019-03-29T05:56:46.137Z,58.44
2019-03-29T05:57:17.326Z,57.89
2019-03-29T05:57:48.580Z,57.74
2019-03-29T05:58:19.776Z,57.86
2019-03-29T05:58:50.935Z,58.05
2019-03-29T05:59:22.160Z,58.54
2019-03-29T05:59:53.283Z,59.00
2019-03-29T06:00:25.519Z,59.49
2019-03-29T06:00:56.730Z,60.14
2019-03-29T06:01:28.118Z,60.63
2019-03-29T06:01:59.267Z,61.19
2019-03-29T06:02:30.477Z,61.84
2019-03-29T06:03:01.633Z,62.36
2019-03-29T06:03:32.844Z,63.24
2019-03-29T06:04:04.050Z,64.04
2019-03-29T06:04:35.274Z,64.48
2019-03-29T06:05:06.509Z,64.48
2019-03-29T06:05:37.737Z,64.14
2019-03-29T06:06:08.968Z,63.56
2019-03-29T06:06:40.173Z,62.96
2019-03-29T06:07:11.309Z,62.30
2019-03-29T06:07:42.520Z,61.66
2019-03-29T06:08:13.673Z,60.98
2019-03-29T06:08:44.876Z,60.36
2019-03-29T06:09:16.033Z,59.79
2019-03-29T06:09:47.231Z,59.22
2019-03-29T06:10:18.373Z,58.51
2019-03-29T06:10:49.908Z,57.88
2019-03-29T06:11:21.174Z,57.69
2019-03-29T06:11:53.373Z,57.72
2019-03-29T06:12:24.535Z,58.15
2019-03-29T06:12:55.843Z,58.52
2019-03-29T06:13:27.020Z,59.10
2019-03-29T06:13:58.216Z,59.76
2019-03-29T06:14:29.358Z,60.35
2019-03-29T06:15:00.551Z,60.97
2019-03-29T06:15:31.698Z,61.54
2019-03-29T06:16:05.950Z,62.09
2019-03-29T06:16:39.209Z,62.70
2019-03-29T06:17:09.129Z,63.54
2019-03-29T06:17:48.572Z,64.23
2019-03-29T06:18:13.513Z,64.52
2019-03-29T06:18:44.735Z,64.33
2019-03-29T06:19:15.962Z,63.85
2019-03-29T06:19:47.188Z,63.26
2019-03-29T06:20:18.422Z,62.58
2019-03-29T06:20:49.641Z,61.79
2019-03-29T06:21:20.861Z,61.14
2019-03-29T06:21:52.076Z,60.40
2019-03-29T06:22:23.257Z,59.68
2019-03-29T06:22:54.437Z,59.08
2019-03-29T06:23:25.962Z,58.36
2019-03-29T06:23:57.156Z,57.79
2019-03-29T06:24:28.345Z,57.58
2019-03-29T06:24:59.518Z,57.68
2019-03-29T06:25:30.711Z,57.95
2019-03-29T06:26:01.977Z,58.52
2019-03-29T06:26:33.217Z,59.06
2019-03-29T06:27:04.390Z,59.61
2019-03-29T06:27:35.559Z,60.29
2019-03-29T06:28:06.744Z,60.83
2019-03-29T06:28:37.920Z,61.36
2019-03-29T06:29:09.113Z,62.02
2019-03-29T06:29:40.296Z,62.62
2019-03-29T06:30:11.458Z,63.30
2019-03-29T06:30:42.656Z,64.07
2019-03-29T06:31:13.833Z,64.33
2019-03-29T06:31:45.040Z,64.37
2019-03-29T06:32:16.215Z,63.89
2019-03-29T06:32:48.454Z,63.32
2019-03-29T06:33:19.619Z,62.65
2019-03-29T06:33:50.977Z,61.90
2019-03-29T06:34:22.124Z,61.22
2019-03-29T06:34:54.346Z,60.66
2019-03-29T06:35:25.557Z,60.06
2019-03-29T06:35:56.769Z,59.52
2019-03-29T06:36:28.029Z,58.74
2019-03-29T06:36:59.235Z,58.09
2019-03-29T06:37:30.496Z,57.88
2019-03-29T06:38:01.900Z,57.89
2019-03-29T06:38:33.147Z,58.11
2019-03-29T06:39:06.766Z,58.55
2019-03-29T06:39:37.911Z,59.04
2019-03-29T06:40:20.394Z,59.61
2019-03-29T06:41:02.148Z,60.18
2019-03-29T06:41:24.632Z,60.91
2019-03-29T06:41:55.852Z,61.58
2019-03-29T06:42:27.023Z,62.30
2019-03-29T06:42:58.197Z,62.87
2019-03-29T06:43:29.368Z,63.67
2019-03-29T06:44:00.537Z,64.37
2019-03-29T06:44:31.784Z,64.65
2019-03-29T06:45:04.816Z,64.49